Time;durP1;ratioP1;P1;durP2;ratioP2;P2;SDS_P1;SDS_P2;PMS_P1;PMS_P2;Temp;Humidity;BMP_temperature;BMP_pressure;BME280_temperature;BME280_humidity;BME280_pressure;Samples;Min_cycle;Max_cycle;Signal;HPM_P1;HPM_P2
2021/05/19 00:01:52;;;;;;;0.80;0.80;;;;;;;7.98;80.58;96484.47;5078871;28;20043;-75
2021/05/19 00:04:18;;;;;;;0.57;0.57;;;;;;;7.98;80.57;96489.69;5085776;28;20040;-75
2021/05/19 00:06:44;;;;;;;0.60;0.60;;;;;;;7.99;80.71;96474.81;5086304;28;20044;-77
2021/05/19 00:09:13;;;;;;;0.63;0.60;;;;;;;7.99;80.79;96482.66;5084874;28;20040;-77
2021/05/19 00:11:42;;;;;;;0.73;0.60;;;;;;;7.99;80.90;96485.25;5081526;28;20044;-74
2021/05/19 00:14:10;;;;;;;1.30;0.70;;;;;;;7.97;80.75;96482.06;5086079;28;20049;-74
2021/05/19 00:16:36;;;;;;;1.92;0.73;;;;;;;7.97;80.79;96488.06;5085642;28;20043;-74
2021/05/19 00:19:03;;;;;;;0.50;0.50;;;;;;;7.90;80.37;96487.28;5089064;28;20039;-74
2021/05/19 00:21:30;;;;;;;1.75;0.60;;;;;;;7.88;80.72;96484.84;5088466;28;20384;-75
2021/05/19 00:23:57;;;;;;;0.80;0.40;;;;;;;7.86;80.74;96486.84;5076194;28;20040;-75
2021/05/19 00:26:24;;;;;;;1.10;0.50;;;;;;;7.85;80.60;96487.06;5089915;28;20071;-75
2021/05/19 00:28:58;;;;;;;0.70;0.70;;;;;;;7.84;80.82;96493.28;5083185;28;20032;-75
2021/05/19 00:31:30;;;;;;;2.10;0.50;;;;;;;7.82;80.71;96493.47;5084722;28;20043;-77
2021/05/19 00:34:14;;;;;;;0.38;0.32;;;;;;;7.84;80.83;96493.28;5076383;28;20079;-75
2021/05/19 00:36:41;;;;;;;0.40;0.40;;;;;;;7.84;80.88;96491.47;5076478;28;20044;-75
2021/05/19 00:39:10;;;;;;;0.73;0.50;;;;;;;7.84;80.82;96488.06;5089407;28;20056;-77
2021/05/19 00:41:39;;;;;;;0.60;0.60;;;;;;;7.84;80.92;96486.25;5082837;28;20396;-76
2021/05/19 00:44:10;;;;;;;0.65;0.60;;;;;;;7.85;80.77;96489.66;5079390;28;20041;-77
2021/05/19 00:46:38;;;;;;;0.50;0.50;;;;;;;7.85;80.74;96490.50;5076028;28;20036;-76
2021/05/19 00:49:04;;;;;;;0.50;0.50;;;;;;;7.82;80.72;96488.25;5088705;28;20040;-76
2021/05/19 00:51:30;;;;;;;1.00;0.80;;;;;;;7.83;80.81;96492.50;5085321;28;20050;-75
2021/05/19 00:53:57;;;;;;;0.50;0.50;;;;;;;7.81;80.88;96491.88;5081216;28;20044;-77
2021/05/19 00:56:25;;;;;;;0.52;0.52;;;;;;;7.82;80.99;96493.47;5095072;28;20036;-76
2021/05/19 00:58:59;;;;;;;0.65;0.65;;;;;;;7.81;80.99;96481.44;5083876;28;20040;-76
2021/05/19 01:01:25;;;;;;;0.85;0.70;;;;;;;7.81;80.99;96478.84;5087518;28;20032;-76
2021/05/19 01:03:53;;;;;;;0.50;0.50;;;;;;;7.82;81.03;96493.47;5087209;28;20381;-76
2021/05/19 01:06:29;;;;;;;0.35;0.35;;;;;;;7.84;80.90;96486.25;5081477;28;20055;-76
2021/05/19 01:11:40;;;;;;;0.70;0.52;;;;;;;7.81;81.18;96481.44;5075917;28;20044;-75
2021/05/19 01:14:06;;;;;;;0.50;0.50;;;;;;;7.80;81.18;96479.81;5083175;28;20044;-75
2021/05/19 01:16:33;;;;;;;0.50;0.50;;;;;;;7.81;81.17;96476.22;5084097;28;20040;-75
2021/05/19 01:18:59;;;;;;;0.50;0.50;;;;;;;7.82;81.29;96475.22;5079417;28;20397;-75
2021/05/19 01:21:26;;;;;;;0.63;0.50;;;;;;;7.84;81.39;96469.78;5085948;28;20036;-76
2021/05/19 01:23:52;;;;;;;0.70;0.70;;;;;;;7.85;81.46;96468.78;5088195;28;20032;-75
2021/05/19 01:26:18;;;;;;;0.60;0.60;;;;;;;7.84;81.40;96467.97;5088890;28;20040;-75
2021/05/19 01:28:45;;;;;;;0.73;0.65;;;;;;;7.85;81.53;96469.59;5078503;28;20048;-75
2021/05/19 01:31:12;;;;;;;1.60;0.70;;;;;;;7.84;81.45;96467.19;5085162;28;20075;-77
2021/05/19 01:33:39;;;;;;;0.55;0.55;;;;;;;7.83;81.52;96463.78;5078262;28;20039;-76
2021/05/19 01:36:06;;;;;;;1.05;0.70;;;;;;;7.84;81.54;96467.97;5087479;28;20079;-76
2021/05/19 01:38:34;;;;;;;0.60;0.60;;;;;;;7.83;81.59;96462.94;5085557;28;20488;-76
2021/05/19 01:41:01;;;;;;;0.60;0.50;;;;;;;7.83;81.59;96455.94;5084466;28;20028;-76
2021/05/19 01:43:38;;;;;;;1.45;0.60;;;;;;;7.81;81.60;96457.94;5076581;28;20045;-77
2021/05/19 01:46:06;;;;;;;0.50;0.50;;;;;;;7.80;81.73;96463.34;5081563;28;20048;-76
2021/05/19 01:48:33;;;;;;;0.65;0.65;;;;;;;7.79;81.62;96459.94;5085414;28;20032;-75
2021/05/19 01:51:01;;;;;;;0.70;0.52;;;;;;;7.77;81.74;96459.34;5086968;28;20040;-77
2021/05/19 01:53:28;;;;;;;1.25;0.70;;;;;;;7.78;81.92;96460.16;5084338;28;20106;-76
2021/05/19 01:55:56;;;;;;;0.68;0.68;;;;;;;7.75;81.79;96458.75;5078892;28;20036;-77
2021/05/19 01:58:22;;;;;;;0.57;0.57;;;;;;;7.73;81.72;96468.56;5081361;28;20482;-76
2021/05/19 02:00:48;;;;;;;0.63;0.50;;;;;;;7.72;81.97;96462.53;5090454;28;20043;-75
2021/05/19 02:03:17;;;;;;;1.98;0.80;;;;;;;7.70;81.98;96463.75;5080029;28;20043;-75
2021/05/19 02:05:44;;;;;;;0.60;0.60;;;;;;;7.70;81.99;96458.53;5080022;28;20048;-76
2021/05/19 02:08:10;;;;;;;0.63;0.63;;;;;;;7.66;81.97;96470.34;5085017;28;20037;-75
2021/05/19 02:10:44;;;;;;;0.85;0.68;;;;;;;7.65;82.07;96468.75;5082748;28;20067;-76
2021/05/19 02:13:11;;;;;;;1.00;0.60;;;;;;;7.64;82.24;96470.56;5083127;28;20046;-75
2021/05/19 02:15:38;;;;;;;0.47;0.47;;;;;;;7.64;82.29;96481.03;5091940;28;20457;-75
2021/05/19 02:18:04;;;;;;;0.60;0.60;;;;;;;7.64;82.35;96473.19;5080522;28;20036;-75
2021/05/19 02:20:32;;;;;;;0.45;0.40;;;;;;;7.65;82.36;96474.78;5081226;28;20035;-75
2021/05/19 02:22:58;;;;;;;2.58;0.60;;;;;;;7.63;82.43;96476.78;5078287;28;20416;-75
2021/05/19 02:25:24;;;;;;;0.85;0.52;;;;;;;7.63;82.40;96483.81;5085450;28;20040;-75
2021/05/19 02:27:51;;;;;;;0.70;0.70;;;;;;;7.62;82.64;96477.81;5084001;28;20461;-75
2021/05/19 02:30:19;;;;;;;0.70;0.70;;;;;;;7.63;82.52;96478.59;5081574;28;20098;-75
2021/05/19 02:32:46;;;;;;;0.70;0.70;;;;;;;7.59;82.53;96472.16;5077438;28;20054;-76
2021/05/19 02:35:13;;;;;;;1.05;0.70;;;;;;;7.58;82.73;96478.38;5082110;28;20504;-75
2021/05/19 02:37:40;;;;;;;1.95;0.70;;;;;;;7.57;82.71;96476.78;5089074;28;20043;-76
2021/05/19 02:40:09;;;;;;;0.77;0.77;;;;;;;7.56;82.68;96475.16;5073921;28;20045;-75
2021/05/19 02:42:36;;;;;;;1.27;0.70;;;;;;;7.55;82.67;96474.34;5084337;28;20040;-75
2021/05/19 02:45:05;;;;;;;0.63;0.60;;;;;;;7.56;82.73;96472.53;5084497;28;20035;-75
2021/05/19 02:47:31;;;;;;;1.70;0.75;;;;;;;7.57;82.73;96482.78;5084202;28;20052;-76
2021/05/19 02:49:58;;;;;;;0.60;0.60;;;;;;;7.55;82.57;96487.41;5083084;28;20052;-76
2021/05/19 02:52:24;;;;;;;0.60;0.60;;;;;;;7.51;82.71;96475.75;5081083;28;20084;-75
2021/05/19 02:54:50;;;;;;;0.60;0.60;;;;;;;7.49;82.88;96485.59;5088702;28;20047;-75
2021/05/19 02:57:17;;;;;;;1.27;0.70;;;;;;;7.46;82.85;96483.38;5083736;28;20040;-74
2021/05/19 02:59:43;;;;;;;0.77;0.77;;;;;;;7.46;82.95;96484.19;5078668;28;20130;-75
2021/05/19 03:02:09;;;;;;;0.85;0.80;;;;;;;7.44;83.05;96488.78;5089096;28;20412;-75
2021/05/19 03:04:37;;;;;;;0.80;0.80;;;;;;;7.43;83.00;96487.19;5082031;28;20032;-75
2021/05/19 03:07:04;;;;;;;0.90;0.70;;;;;;;7.42;83.17;96488.19;5084300;28;20483;-75
2021/05/19 03:09:30;;;;;;;0.63;0.52;;;;;;;7.44;83.30;96495.81;5082833;28;20044;-77
2021/05/19 03:11:56;;;;;;;0.60;0.60;;;;;;;7.44;83.38;96486.19;5089492;28;20059;-76
2021/05/19 03:14:23;;;;;;;0.95;0.75;;;;;;;7.44;83.38;96485.38;5082265;28;20461;-75
2021/05/19 03:16:49;;;;;;;0.73;0.70;;;;;;;7.44;83.50;96486.19;5079398;28;20039;-75
2021/05/19 03:19:15;;;;;;;0.73;0.73;;;;;;;7.43;83.40;96492.41;5078414;28;20035;-75
2021/05/19 03:21:42;;;;;;;0.75;0.75;;;;;;;7.44;83.59;96494.00;5082881;28;20032;-75
2021/05/19 03:24:08;;;;;;;0.68;0.68;;;;;;;7.39;83.34;96496.41;5085260;28;20040;-75
2021/05/19 03:26:34;;;;;;;0.75;0.75;;;;;;;7.40;83.59;96494.59;5081924;28;20033;-75
2021/05/19 03:29:01;;;;;;;0.80;0.80;;;;;;;7.41;83.83;96498.81;5086713;28;20396;-75
2021/05/19 03:31:27;;;;;;;0.77;0.77;;;;;;;7.40;83.64;96503.22;5082986;28;20033;-75
2021/05/19 03:33:53;;;;;;;0.85;0.70;;;;;;;7.41;83.73;96497.03;5086140;28;20051;-76
2021/05/19 03:36:19;;;;;;;1.42;0.85;;;;;;;7.41;83.89;96504.84;5088437;28;20052;-75
2021/05/19 03:38:46;;;;;;;1.33;0.85;;;;;;;7.43;83.74;96502.84;5081162;28;20047;-75
2021/05/19 03:41:12;;;;;;;0.73;0.73;;;;;;;7.44;83.76;96501.84;5082620;28;20039;-74
2021/05/19 03:43:38;;;;;;;2.60;1.10;;;;;;;7.44;83.67;96503.66;5084091;28;20477;-75
2021/05/19 03:46:06;;;;;;;0.85;0.75;;;;;;;7.44;83.68;96507.06;5087123;28;20480;-75
2021/05/19 03:48:32;;;;;;;0.75;0.75;;;;;;;7.43;83.77;96512.47;5089592;28;20032;-76
2021/05/19 03:50:59;;;;;;;0.75;0.70;;;;;;;7.44;84.00;96519.31;5087002;28;20388;-76
2021/05/19 03:53:26;;;;;;;1.00;1.00;;;;;;;7.46;83.88;96518.09;5086698;28;20047;-76
2021/05/19 03:55:53;;;;;;;1.05;0.80;;;;;;;7.47;83.82;96519.69;5085464;28;20032;-76
2021/05/19 03:58:19;;;;;;;0.85;0.77;;;;;;;7.48;83.79;96516.09;5087074;28;20047;-77
2021/05/19 04:00:45;;;;;;;0.70;0.70;;;;;;;7.49;83.82;96522.91;5089730;28;20036;-76
2021/05/19 04:03:12;;;;;;;1.10;0.80;;;;;;;7.49;83.75;96522.13;5087176;28;20036;-76
2021/05/19 04:05:39;;;;;;;0.63;0.63;;;;;;;7.49;83.88;96522.91;5087092;28;20032;-76
2021/05/19 04:08:07;;;;;;;0.80;0.80;;;;;;;7.49;83.62;96525.53;5080309;28;20033;-76
2021/05/19 04:10:34;;;;;;;0.70;0.70;;;;;;;7.48;83.86;96526.53;5087006;28;20461;-76
2021/05/19 04:13:04;;;;;;;0.80;0.80;;;;;;;7.51;83.88;96528.75;5090285;28;20044;-76
2021/05/19 04:15:30;;;;;;;1.02;0.90;;;;;;;7.50;83.82;96534.19;5084749;28;20051;-76
2021/05/19 04:17:57;;;;;;;1.65;0.80;;;;;;;7.47;83.60;96537.16;5079136;28;20059;-76
2021/05/19 04:20:24;;;;;;;0.90;0.90;;;;;;;7.48;83.94;96550.03;5076423;28;20040;-76
2021/05/19 04:22:50;;;;;;;1.25;0.80;;;;;;;7.49;83.97;96541.19;5083560;28;20032;-76
2021/05/19 04:25:17;;;;;;;0.77;0.77;;;;;;;7.50;84.00;96536.78;5087934;28;20025;-76
2021/05/19 04:27:43;;;;;;;0.80;0.80;;;;;;;7.49;83.88;96540.38;5084614;28;20032;-76
2021/05/19 04:30:10;;;;;;;1.20;1.08;;;;;;;7.48;83.71;96544.00;5082783;28;20037;-77
2021/05/19 04:32:37;;;;;;;1.15;1.10;;;;;;;7.43;83.53;96549.00;5092252;28;20033;-75
2021/05/19 04:35:13;;;;;;;0.93;0.93;;;;;;;7.40;83.64;96549.38;5084661;28;20051;-77
2021/05/19 04:37:39;;;;;;;0.85;0.85;;;;;;;7.39;83.97;96553.81;5083040;28;20051;-76
2021/05/19 04:40:06;;;;;;;0.70;0.70;;;;;;;7.44;84.25;96554.03;5085035;28;20043;-76
2021/05/19 04:42:34;;;;;;;1.88;1.00;;;;;;;7.47;84.19;96550.19;5083069;28;20036;-76
2021/05/19 04:45:00;;;;;;;0.90;0.90;;;;;;;7.52;84.00;96550.44;5092311;28;20036;-76
2021/05/19 04:47:26;;;;;;;1.20;1.10;;;;;;;7.57;84.29;96557.69;5080231;28;20043;-76
2021/05/19 04:49:52;;;;;;;1.05;1.00;;;;;;;7.56;83.97;96554.28;5084216;28;20055;-76
2021/05/19 04:52:18;;;;;;;0.80;0.80;;;;;;;7.58;84.04;96557.50;5085967;28;20032;-77
2021/05/19 04:54:45;;;;;;;0.85;0.85;;;;;;;7.60;83.83;96555.50;5086376;28;20047;-75
2021/05/19 04:57:11;;;;;;;0.90;0.90;;;;;;;7.61;83.76;96556.28;5080490;28;20059;-77
2021/05/19 04:59:37;;;;;;;0.90;0.80;;;;;;;7.62;83.95;96553.50;5087472;28;20032;-74
2021/05/19 05:02:03;;;;;;;0.90;0.90;;;;;;;7.67;83.82;96552.91;5090654;28;20044;-74
2021/05/19 05:04:29;;;;;;;0.80;0.80;;;;;;;7.66;83.45;96557.28;5088402;28;20036;-75
2021/05/19 05:06:56;;;;;;;3.30;1.27;;;;;;;7.66;83.54;96564.31;5080727;28;20055;-74
2021/05/19 05:09:22;;;;;;;2.30;1.00;;;;;;;7.69;83.69;96569.16;5082153;28;20502;-76
2021/05/19 05:11:48;;;;;;;0.95;0.95;;;;;;;7.69;83.38;96567.34;5087549;28;20040;-74
2021/05/19 05:14:15;;;;;;;0.90;0.90;;;;;;;7.73;83.49;96576.41;5090041;28;20045;-75
2021/05/19 05:16:41;;;;;;;1.25;1.10;;;;;;;7.76;83.56;96577.81;5087847;28;20044;-75
2021/05/19 05:19:07;;;;;;;1.00;1.00;;;;;;;7.79;83.49;96587.03;5083688;28;20423;-76
2021/05/19 05:21:34;;;;;;;0.85;0.85;;;;;;;7.81;83.45;96580.66;5082987;28;20039;-76
2021/05/19 05:24:01;;;;;;;1.00;1.00;;;;;;;7.83;83.15;96585.66;5080016;28;20416;-76
2021/05/19 05:26:28;;;;;;;0.88;0.88;;;;;;;7.83;83.04;96594.31;5089164;28;20032;-76
2021/05/19 05:28:54;;;;;;;0.93;0.93;;;;;;;7.93;83.52;96588.69;5089352;28;20376;-76
2021/05/19 05:31:21;;;;;;;1.27;0.93;;;;;;;8.20;83.89;96591.38;5080318;28;20492;-76
2021/05/19 05:33:47;;;;;;;1.00;1.00;;;;;;;8.58;83.77;96591.63;5086031;28;20033;-76
2021/05/19 05:36:14;;;;;;;1.00;1.00;;;;;;;8.77;82.86;96583.97;5088481;28;20408;-76
2021/05/19 05:38:40;;;;;;;0.80;0.80;;;;;;;8.88;82.37;96584.19;5078706;28;20047;-75
2021/05/19 05:41:07;;;;;;;1.05;1.00;;;;;;;8.94;81.78;96582.53;5087024;28;20047;-75
2021/05/19 05:43:33;;;;;;;2.40;1.10;;;;;;;9.02;81.63;96586.75;5087054;28;20394;-76
2021/05/19 05:45:59;;;;;;;0.90;0.90;;;;;;;9.09;81.34;96582.31;5083602;28;20036;-75
2021/05/19 05:48:26;;;;;;;2.10;1.27;;;;;;;9.12;80.66;96585.31;5082815;28;20048;-75
2021/05/19 05:50:52;;;;;;;0.88;0.88;;;;;;;9.01;80.08;96582.53;5084076;28;20055;-75
2021/05/19 05:53:18;;;;;;;0.90;0.90;;;;;;;9.12;80.30;96587.94;5078778;28;20040;-76
2021/05/19 05:55:44;;;;;;;0.90;0.90;;;;;;;9.64;80.82;96585.38;5084912;28;20040;-75
2021/05/19 05:58:11;;;;;;;0.90;0.90;;;;;;;10.18;80.34;96582.44;5083265;28;20389;-75
2021/05/19 06:00:37;;;;;;;1.83;1.00;;;;;;;10.64;79.28;96579.50;5082719;28;20036;-75
2021/05/19 06:03:05;;;;;;;1.33;1.10;;;;;;;11.18;78.46;96588.50;5087965;28;20071;-75
2021/05/19 06:05:31;;;;;;;1.23;1.20;;;;;;;11.78;77.63;96589.66;5076280;28;20044;-75
2021/05/19 06:08:00;;;;;;;0.90;0.90;;;;;;;12.38;76.58;96587.00;5083876;28;20469;-75
2021/05/19 06:10:27;;;;;;;1.23;0.80;;;;;;;12.76;74.79;96580.53;5083469;28;20041;-75
2021/05/19 06:12:53;;;;;;;1.73;0.70;;;;;;;12.66;72.68;96585.59;5085888;28;20059;-75
2021/05/19 06:15:19;;;;;;;0.80;0.80;;;;;;;12.33;71.91;96594.00;5078768;28;20043;-76
2021/05/19 06:17:46;;;;;;;0.80;0.80;;;;;;;11.81;71.02;96591.81;5084824;28;20032;-75
2021/05/19 06:20:14;;;;;;;0.88;0.88;;;;;;;11.41;71.54;96592.31;5084292;28;20473;-75
2021/05/19 06:22:40;;;;;;;0.70;0.70;;;;;;;11.22;72.30;96588.88;5085675;28;20043;-76
2021/05/19 06:25:08;;;;;;;0.95;0.95;;;;;;;11.12;72.37;96592.00;5079164;28;20066;-75
2021/05/19 06:27:34;;;;;;;1.00;1.00;;;;;;;11.11;72.45;96595.66;5080812;28;20024;-75
2021/05/19 06:30:00;;;;;;;1.27;0.93;;;;;;;11.56;72.48;96597.97;5078461;28;20028;-75
2021/05/19 06:32:26;;;;;;;0.85;0.85;;;;;;;12.17;71.89;96603.31;5082632;28;20064;-75
2021/05/19 06:34:53;;;;;;;1.77;1.67;;;;;;;12.45;70.05;96599.25;5088854;28;20052;-75
2021/05/19 06:37:20;;;;;;;0.80;0.80;;;;;;;12.44;68.84;96602.94;5073700;28;20052;-75
2021/05/19 06:39:46;;;;;;;0.82;0.82;;;;;;;12.65;68.74;96605.03;5088218;28;20040;-75
2021/05/19 06:42:12;;;;;;;1.02;0.93;;;;;;;12.56;67.38;96596.66;5077583;28;20040;-75
2021/05/19 06:44:38;;;;;;;4.25;3.92;;;;;;;12.36;67.36;96611.94;5081930;28;20037;-75
2021/05/19 06:47:05;;;;;;;1.00;0.98;;;;;;;12.36;68.01;96599.56;5087020;28;20036;-74
2021/05/19 06:49:31;;;;;;;2.15;1.10;;;;;;;12.65;67.98;96601.59;5083273;28;20043;-75
2021/05/19 06:51:57;;;;;;;0.85;0.85;;;;;;;13.24;67.99;96599.75;5080764;28;20039;-75
2021/05/19 06:54:24;;;;;;;1.13;1.10;;;;;;;13.52;66.03;96593.00;5080622;28;20453;-75
2021/05/19 06:56:50;;;;;;;1.40;1.40;;;;;;;13.07;65.18;96602.28;5092650;28;20039;-75
2021/05/19 06:59:21;;;;;;;1.88;1.77;;;;;;;12.87;65.12;96594.75;5083051;28;20433;-75
2021/05/19 07:01:48;;;;;;;1.10;0.80;;;;;;;12.71;65.89;96604.13;5084224;28;20040;-75
2021/05/19 07:04:15;;;;;;;1.52;0.88;;;;;;;12.59;66.08;96604.09;5085416;28;20036;-75
2021/05/19 07:06:41;;;;;;;0.80;0.80;;;;;;;12.52;66.05;96607.88;5077994;28;20043;-74
2021/05/19 07:09:07;;;;;;;0.88;0.77;;;;;;;12.36;65.84;96615.34;5082949;28;20036;-75
2021/05/19 07:11:34;;;;;;;1.48;0.75;;;;;;;12.31;65.97;96609.19;5085304;28;20039;-75
2021/05/19 07:14:01;;;;;;;0.98;0.60;;;;;;;12.35;66.04;96616.41;5084386;28;20043;-75
2021/05/19 07:16:30;;;;;;;0.50;0.50;;;;;;;12.46;65.93;96620.09;5086235;28;20044;-75
2021/05/19 07:18:56;;;;;;;0.60;0.60;;;;;;;12.64;65.68;96611.31;5086100;28;20048;-75
2021/05/19 07:21:23;;;;;;;0.70;0.70;;;;;;;13.01;65.76;96613.75;5085682;28;20040;-75
2021/05/19 07:23:50;;;;;;;0.60;0.60;;;;;;;13.40;64.78;96614.91;5083333;28;20039;-75
2021/05/19 07:26:19;;;;;;;0.47;0.47;;;;;;;13.73;64.71;96618.75;5092918;28;20039;-76
2021/05/19 07:28:45;;;;;;;0.60;0.60;;;;;;;13.88;63.48;96605.06;5084069;28;20456;-75
2021/05/19 07:31:12;;;;;;;2.83;0.70;;;;;;;13.79;62.94;96607.22;5084691;28;20036;-75
2021/05/19 07:33:38;;;;;;;1.95;0.85;;;;;;;13.70;62.73;96610.50;5086755;28;20037;-74
2021/05/19 07:36:05;;;;;;;1.95;0.77;;;;;;;13.67;62.64;96617.03;5092099;28;20052;-74
2021/05/19 07:38:31;;;;;;;0.70;0.57;;;;;;;13.57;62.49;96606.28;5086644;28;20044;-74
2021/05/19 07:40:58;;;;;;;0.82;0.60;;;;;;;13.45;62.17;96622.09;5085016;28;20040;-75
2021/05/19 07:43:24;;;;;;;1.35;0.90;;;;;;;13.28;62.24;96619.34;5081896;28;20045;-76
2021/05/19 07:45:50;;;;;;;0.75;0.75;;;;;;;13.18;62.43;96619.13;5087166;28;20036;-74
2021/05/19 07:48:17;;;;;;;0.60;0.60;;;;;;;13.14;62.58;96621.41;5082703;28;20044;-75
2021/05/19 07:50:44;;;;;;;0.60;0.60;;;;;;;13.12;62.38;96620.03;5088762;28;20042;-75
2021/05/19 07:53:10;;;;;;;0.70;0.70;;;;;;;13.16;62.13;96621.19;5085981;28;20385;-75
2021/05/19 07:55:54;;;;;;;0.85;0.85;;;;;;;13.20;62.39;96622.31;5091283;28;20035;-75
2021/05/19 08:01:28;;;;;;;1.73;1.52;;;;;;;13.23;61.97;96619.25;5075048;28;20294;-74
2021/05/19 08:03:54;;;;;;;0.80;0.80;;;;;;;13.22;61.99;96617.63;5087651;28;20044;-75
2021/05/19 08:06:21;;;;;;;1.40;1.30;;;;;;;13.18;61.97;96614.66;5087906;28;20408;-75
2021/05/19 08:08:47;;;;;;;0.88;0.68;;;;;;;13.13;61.78;96617.19;5079279;28;20051;-75
2021/05/19 08:11:17;;;;;;;1.08;0.98;;;;;;;13.09;61.13;96615.25;5088430;28;20033;-75
2021/05/19 08:13:47;;;;;;;1.55;0.55;;;;;;;13.13;61.12;96611.13;5084976;28;20048;-75
2021/05/19 08:16:14;;;;;;;1.02;0.60;;;;;;;13.20;61.04;96603.88;5088490;28;20047;-75
2021/05/19 08:18:42;;;;;;;0.60;0.60;;;;;;;13.26;60.67;96616.13;5085092;28;20032;-75
2021/05/19 08:21:09;;;;;;;0.70;0.68;;;;;;;13.27;60.12;96606.41;5085508;28;20043;-75
2021/05/19 08:23:36;;;;;;;0.65;0.63;;;;;;;13.31;59.94;96602.31;5085110;28;20032;-74
2021/05/19 08:26:05;;;;;;;0.43;0.43;;;;;;;13.35;59.79;96608.72;5086436;28;20127;-74
2021/05/19 08:28:36;;;;;;;0.60;0.52;;;;;;;13.45;59.73;96601.03;5080853;28;20044;-75
2021/05/19 08:31:04;;;;;;;0.70;0.70;;;;;;;13.59;59.28;96594.47;5087787;28;20060;-74
2021/05/19 08:33:31;;;;;;;0.80;0.70;;;;;;;13.65;58.67;96592.75;5088609;28;20048;-74
2021/05/19 08:35:58;;;;;;;0.90;0.80;;;;;;;13.72;58.54;96587.34;5084074;28;20040;-74
2021/05/19 08:38:25;;;;;;;0.80;0.60;;;;;;;13.80;58.12;96587.75;5085859;28;20043;-74
2021/05/19 08:40:51;;;;;;;0.65;0.60;;;;;;;14.01;58.00;96578.41;5083151;28;20060;-74
2021/05/19 08:43:17;;;;;;;0.50;0.43;;;;;;;14.31;57.44;96577.31;5087220;28;20037;-74
2021/05/19 08:45:45;;;;;;;0.57;0.57;;;;;;;14.34;56.15;96554.94;5088403;28;20040;-75
2021/05/19 08:48:11;;;;;;;1.00;0.45;;;;;;;14.34;56.07;96545.22;5080226;28;20054;-74
2021/05/19 08:50:38;;;;;;;0.65;0.43;;;;;;;14.61;55.62;96553.31;5085894;28;20044;-74
2021/05/19 08:53:09;;;;;;;0.50;0.50;;;;;;;15.02;52.41;96511.66;5080613;28;20376;-74
2021/05/19 08:55:36;;;;;;;0.30;0.30;;;;;;;15.14;54.13;96521.28;5089623;28;20388;-74
2021/05/19 08:58:03;;;;;;;0.45;0.45;;;;;;;15.12;53.78;96526.00;5086759;28;20040;-74
2021/05/19 09:00:33;;;;;;;2.63;0.47;;;;;;;15.09;53.34;96518.59;5089552;28;20040;-74
2021/05/19 09:03:11;;;;;;;0.75;0.60;;;;;;;15.10;51.93;96507.78;5085516;28;20049;-74
2021/05/19 09:05:39;;;;;;;0.40;0.40;;;;;;;14.93;52.55;96507.84;5086310;28;20043;-75
2021/05/19 09:08:08;;;;;;;0.43;0.40;;;;;;;15.20;52.63;96507.91;5082710;28;20051;-74
2021/05/19 09:10:37;;;;;;;0.60;0.52;;;;;;;15.56;51.68;96491.66;5082923;28;20033;-75
2021/05/19 09:13:04;;;;;;;0.60;0.60;;;;;;;15.95;51.19;96486.25;5090577;28;20485;-74
2021/05/19 09:15:49;;;;;;;1.85;0.30;;;;;;;16.23;48.18;96451.59;5081501;28;20028;-74
2021/05/19 09:18:15;;;;;;;1.80;0.47;;;;;;;16.24;49.70;96471.69;5084239;28;20487;-75
2021/05/19 09:20:43;;;;;;;0.35;0.35;;;;;;;15.99;49.57;96482.06;5085084;28;20484;-75
2021/05/19 09:23:16;;;;;;;0.77;0.50;;;;;;;15.45;49.24;96477.53;5089669;28;20514;-75
2021/05/19 09:25:42;;;;;;;0.93;0.40;;;;;;;15.15;49.56;96472.72;5086591;28;20046;-75
2021/05/19 09:28:09;;;;;;;0.30;0.30;;;;;;;15.15;48.69;96502.56;5084852;28;20047;-75
2021/05/19 09:30:44;;;;;;;0.30;0.25;;;;;;;15.51;47.60;96513.53;5085478;28;20032;-75
2021/05/19 09:33:10;;;;;;;0.20;0.20;;;;;;;15.94;47.63;96535.72;5084865;28;20052;-75
2021/05/19 09:35:37;;;;;;;0.30;0.30;;;;;;;16.15;46.19;96536.72;5085421;28;20044;-76
2021/05/19 09:38:05;;;;;;;0.38;0.30;;;;;;;16.39;45.92;96542.47;5066858;28;20048;-75
2021/05/19 09:40:32;;;;;;;0.28;0.20;;;;;;;16.66;44.35;96535.53;5080773;28;20036;-75
2021/05/19 09:43:00;;;;;;;0.20;0.20;;;;;;;16.89;43.75;96521.94;5078797;28;20056;-75
2021/05/19 09:45:39;;;;;;;0.20;0.20;;;;;;;17.12;40.63;96509.34;5088883;28;20036;-75
2021/05/19 09:48:06;;;;;;;0.30;0.30;;;;;;;17.27;41.92;96524.50;5087372;28;20040;-75
2021/05/19 09:50:33;;;;;;;0.40;0.30;;;;;;;17.44;41.47;96515.28;5083257;28;20044;-75
2021/05/19 09:53:09;;;;;;;0.98;0.30;;;;;;;17.68;39.87;96511.38;5079489;28;20052;-75
2021/05/19 09:55:37;;;;;;;0.60;0.25;;;;;;;17.78;40.00;96506.09;5083009;28;20037;-75
2021/05/19 09:58:04;;;;;;;0.65;0.28;;;;;;;17.76;39.31;96534.75;5087176;28;20496;-75
2021/05/19 10:00:31;;;;;;;1.00;0.28;;;;;;;17.67;38.90;96534.47;5087983;28;20036;-75
2021/05/19 10:03:00;;;;;;;1.13;0.40;;;;;;;17.76;38.78;96550.66;5081999;28;20047;-75
2021/05/19 10:05:43;;;;;;;0.20;0.20;;;;;;;17.91;38.51;96557.91;5081604;28;20059;-75
2021/05/19 10:08:11;;;;;;;0.40;0.25;;;;;;;18.10;37.62;96553.72;5082196;28;20059;-75
2021/05/19 10:10:38;;;;;;;0.93;0.40;;;;;;;18.33;37.78;96547.09;5089798;28;20472;-75
2021/05/19 10:13:07;;;;;;;0.47;0.30;;;;;;;18.40;36.53;96536.22;5079813;28;20473;-75
2021/05/19 10:15:35;;;;;;;0.57;0.40;;;;;;;18.58;36.78;96534.88;5077799;28;20032;-75
2021/05/19 10:18:06;;;;;;;0.60;0.40;;;;;;;18.76;34.45;96526.34;5092979;28;20044;-75
2021/05/19 10:20:37;;;;;;;1.02;0.43;;;;;;;18.60;34.13;96530.88;5081466;28;20040;-75
2021/05/19 10:23:07;;;;;;;0.43;0.40;;;;;;;18.50;35.16;96532.75;5083281;28;20404;-74
2021/05/19 10:25:39;;;;;;;0.30;0.30;;;;;;;18.43;33.39;96515.22;5084734;28;20364;-75
2021/05/19 10:28:14;;;;;;;2.05;0.55;;;;;;;18.37;31.82;96513.66;5088003;28;20032;-74
2021/05/19 10:30:46;;;;;;;0.65;0.10;;;;;;;18.51;32.90;96527.16;5086875;28;20032;-74
2021/05/19 10:33:30;;;;;;;0.55;0.40;;;;;;;18.72;31.69;96513.88;5081129;28;20050;-74
2021/05/19 10:35:58;;;;;;;1.75;0.43;;;;;;;18.77;33.25;96511.19;5078246;28;20032;-74
2021/05/19 10:38:28;;;;;;;0.63;0.30;;;;;;;18.80;32.78;96508.06;5085296;28;20060;-75
2021/05/19 10:40:54;;;;;;;0.40;0.40;;;;;;;18.92;33.20;96510.41;5092529;28;20032;-75
2021/05/19 10:43:21;;;;;;;0.20;0.20;;;;;;;18.89;32.50;96502.97;5083988;28;20032;-75
2021/05/19 10:45:50;;;;;;;0.40;0.30;;;;;;;19.10;32.65;96496.53;5079263;28;20033;-75
2021/05/19 10:48:30;;;;;;;0.70;0.55;;;;;;;19.41;33.23;96507.06;5089234;28;20032;-75
2021/05/19 10:51:04;;;;;;;0.30;0.30;;;;;;;19.33;32.55;96500.44;5080405;28;20047;-75
2021/05/19 10:59:19;;;;;;;0.43;0.40;;;;;;;19.99;32.35;96496.66;5083456;28;19909;-75
2021/05/19 11:01:51;;;;;;;0.70;0.32;;;;;;;19.97;31.96;96496.16;5087160;28;20024;-75
2021/05/19 11:04:25;;;;;;;0.30;0.30;;;;;;;19.82;30.55;96489.06;5082970;28;20041;-75
2021/05/19 11:07:01;;;;;;;0.30;0.30;;;;;;;19.69;31.02;96502.94;5083629;28;20036;-75
2021/05/19 11:09:29;;;;;;;0.50;0.30;;;;;;;19.83;31.67;96487.19;5084391;28;20523;-75
2021/05/19 11:12:18;;;;;;;0.95;0.40;;;;;;;20.00;31.18;96492.13;5078085;28;20515;-75
2021/05/19 11:14:57;;;;;;;2.05;0.60;;;;;;;20.06;31.25;96491.03;5083060;28;20033;-76
2021/05/19 11:17:53;;;;;;;0.30;0.30;;;;;;;20.24;29.03;96468.25;5081142;28;20106;-75
2021/05/19 11:20:19;;;;;;;0.63;0.50;;;;;;;20.45;31.02;96484.84;5086172;28;20044;-75
2021/05/19 11:22:45;;;;;;;1.35;0.30;;;;;;;20.47;30.50;96480.03;5082325;28;20036;-75
2021/05/19 11:25:14;;;;;;;0.50;0.30;;;;;;;20.50;29.99;96468.03;5076077;28;20040;-75
2021/05/19 11:27:40;;;;;;;0.30;0.30;;;;;;;20.60;29.81;96482.09;5082991;28;20033;-75
2021/05/19 11:30:24;;;;;;;0.60;0.30;;;;;;;20.71;28.03;96466.78;5087927;28;20046;-75
2021/05/19 11:33:01;;;;;;;0.30;0.30;;;;;;;20.93;29.56;96474.28;5083329;28;20058;-75
2021/05/19 11:35:27;;;;;;;0.25;0.25;;;;;;;21.16;29.22;96458.56;5082494;28;20048;-75
2021/05/19 11:37:55;;;;;;;0.75;0.30;;;;;;;21.16;28.92;96470.00;5075458;28;20492;-75
2021/05/19 11:40:22;;;;;;;0.30;0.30;;;;;;;21.20;28.98;96460.34;5073393;28;20039;-74
2021/05/19 11:42:54;;;;;;;0.30;0.30;;;;;;;21.42;27.71;96464.41;5083186;28;20496;-75
2021/05/19 11:45:25;;;;;;;0.40;0.30;;;;;;;21.49;27.83;96454.16;5081057;28;20059;-74
2021/05/19 11:47:52;;;;;;;0.77;0.25;;;;;;;21.69;28.16;96453.88;5077828;28;20043;-75
2021/05/19 11:50:23;;;;;;;0.52;0.50;;;;;;;21.86;28.04;96441.91;5081942;28;20044;-75
2021/05/19 11:52:59;;;;;;;8.48;7.78;;;;;;;21.50;27.78;96442.41;5082241;28;20045;-76